createdAt,value
2018-06-07T00:00:07.855Z,0.00
2018-06-07T00:01:07.814Z,0.00
2018-06-07T00:02:07.773Z,0.00
2018-06-07T00:03:07.725Z,0.00
2018-06-07T00:04:07.718Z,0.00
2018-06-07T00:05:07.642Z,0.00
2018-06-07T00:06:07.595Z,0.00
2018-06-07T00:07:07.554Z,0.00
2018-06-07T00:08:07.508Z,0.00
2018-06-07T00:09:07.499Z,0.00
2018-06-07T00:10:07.420Z,0.00
2018-06-07T00:11:07.378Z,0.00
2018-06-07T00:12:07.335Z,0.00
2018-06-07T00:13:07.293Z,0.00
2018-06-07T00:14:07.279Z,0.00
2018-06-07T00:15:07.201Z,0.00
2018-06-07T00:16:07.158Z,0.00
2018-06-07T00:17:07.114Z,0.00
2018-06-07T00:18:07.071Z,0.00
2018-06-07T00:19:07.063Z,0.00
2018-06-07T00:20:06.981Z,0.00
2018-06-07T00:21:06.938Z,0.00
2018-06-07T00:22:06.896Z,0.00
2018-06-07T00:23:06.855Z,0.00
2018-06-07T00:24:06.842Z,0.00
2018-06-07T00:25:06.764Z,0.00
2018-06-07T00:26:06.718Z,0.00
2018-06-07T00:27:06.673Z,0.00
2018-06-07T00:28:06.629Z,0.00
2018-06-07T00:29:06.622Z,0.00
2018-06-07T00:30:06.544Z,0.00
2018-06-07T00:31:06.497Z,0.00
2018-06-07T00:32:06.456Z,0.00
2018-06-07T00:33:06.414Z,0.00
2018-06-07T00:34:06.402Z,0.00
2018-06-07T00:35:06.327Z,0.00
2018-06-07T00:36:06.278Z,0.00
2018-06-07T00:37:06.237Z,0.00
2018-06-07T00:38:06.190Z,0.00
2018-06-07T00:39:06.180Z,0.00
2018-06-07T00:40:06.106Z,0.00
2018-06-07T00:41:06.060Z,0.00
2018-06-07T00:42:06.017Z,0.00
2018-06-07T00:43:05.973Z,0.00
2018-06-07T00:44:05.963Z,0.00
2018-06-07T00:45:05.886Z,0.00
2018-06-07T00:46:05.837Z,0.00
2018-06-07T00:47:05.793Z,0.00
2018-06-07T00:48:05.751Z,0.00
2018-06-07T00:49:05.746Z,0.00
2018-06-07T00:50:05.663Z,0.00
2018-06-07T00:51:05.620Z,0.00
2018-06-07T00:52:05.575Z,0.00
2018-06-07T00:53:05.529Z,0.00
2018-06-07T00:54:05.521Z,0.00
2018-06-07T00:55:05.443Z,0.00
2018-06-07T00:56:05.397Z,0.00
2018-06-07T00:57:05.360Z,0.00
2018-06-07T00:58:05.313Z,0.00
2018-06-07T00:59:05.300Z,0.00
2018-06-07T01:00:05.224Z,0.00
2018-06-07T01:01:05.177Z,0.00
2018-06-07T01:02:05.134Z,0.00
2018-06-07T01:03:05.092Z,0.00
2018-06-07T01:04:05.089Z,0.00
2018-06-07T01:05:05.000Z,0.00
2018-06-07T01:06:04.957Z,0.00
2018-06-07T01:07:04.912Z,0.00
2018-06-07T01:08:04.868Z,0.00
2018-06-07T01:09:04.862Z,0.00
2018-06-07T01:10:04.780Z,0.00
2018-06-07T01:11:04.737Z,0.00
2018-06-07T01:12:04.694Z,0.00
2018-06-07T01:13:04.648Z,0.00
2018-06-07T01:14:04.640Z,0.00
2018-06-07T01:15:04.558Z,0.00
2018-06-07T01:16:04.525Z,0.00
2018-06-07T01:17:04.469Z,0.00
2018-06-07T01:18:04.429Z,0.00
2018-06-07T01:19:04.419Z,0.00
2018-06-07T01:20:04.339Z,0.00
2018-06-07T01:21:04.298Z,0.00
2018-06-07T01:22:04.249Z,0.00
2018-06-07T01:23:04.206Z,0.00
2018-06-07T01:24:04.198Z,0.00
2018-06-07T01:25:04.118Z,0.00
2018-06-07T01:26:04.074Z,0.00
2018-06-07T01:27:04.032Z,0.00
2018-06-07T01:28:03.984Z,0.00
2018-06-07T01:29:03.977Z,0.00
2018-06-07T01:30:03.897Z,0.00
2018-06-07T01:31:03.852Z,0.00
2018-06-07T01:32:03.809Z,0.00
2018-06-07T01:33:03.764Z,0.00
2018-06-07T01:34:03.759Z,0.00
2018-06-07T01:35:03.680Z,0.00
2018-06-07T01:36:03.632Z,0.00
2018-06-07T01:37:03.586Z,0.00
2018-06-07T01:38:03.543Z,0.00
2018-06-07T01:39:03.532Z,0.00
2018-06-07T01:40:03.457Z,0.00
2018-06-07T01:41:03.409Z,0.00
2018-06-07T01:42:03.363Z,0.00
2018-06-07T01:43:03.321Z,0.00
2018-06-07T01:44:03.310Z,0.00
2018-06-07T01:45:03.233Z,0.00
2018-06-07T01:46:03.191Z,0.00
2018-06-07T01:47:03.144Z,0.00
2018-06-07T01:48:03.098Z,0.00
2018-06-07T01:49:03.087Z,0.00
2018-06-07T01:50:03.015Z,0.00
2018-06-07T01:51:02.966Z,0.00
2018-06-07T01:52:02.921Z,0.00
2018-06-07T01:53:02.878Z,0.00
2018-06-07T01:54:02.872Z,0.00
2018-06-07T01:55:02.790Z,0.00
2018-06-07T01:56:02.748Z,0.00
2018-06-07T01:57:02.712Z,0.00
2018-06-07T01:58:02.658Z,0.00
2018-06-07T01:59:02.647Z,0.00
2018-06-07T02:00:02.572Z,0.00
2018-06-07T02:01:02.531Z,0.00
2018-06-07T02:02:02.479Z,0.00
2018-06-07T02:03:02.441Z,0.00
2018-06-07T02:04:02.427Z,0.00
2018-06-07T02:05:02.351Z,0.00
2018-06-07T02:06:02.304Z,0.00
2018-06-07T02:07:02.258Z,0.00
2018-06-07T02:08:02.216Z,0.00
2018-06-07T02:09:02.207Z,0.00
2018-06-07T02:10:02.129Z,0.00
2018-06-07T02:11:02.079Z,0.00
2018-06-07T02:12:02.040Z,0.00
2018-06-07T02:13:01.992Z,0.00
2018-06-07T02:14:01.983Z,0.00
2018-06-07T02:15:01.905Z,0.00
2018-06-07T02:16:01.861Z,0.00
2018-06-07T02:17:01.816Z,0.00
2018-06-07T02:18:01.772Z,0.00
2018-06-07T02:19:01.762Z,0.00
2018-06-07T02:20:01.684Z,0.00
2018-06-07T02:21:01.641Z,0.00
2018-06-07T02:22:01.601Z,0.00
2018-06-07T02:23:01.552Z,0.00
2018-06-07T02:24:01.539Z,0.00
2018-06-07T02:25:01.462Z,0.00
2018-06-07T02:26:01.417Z,0.00
2018-06-07T02:27:01.372Z,0.00
2018-06-07T02:28:01.334Z,0.00
2018-06-07T02:29:01.321Z,0.00
2018-06-07T02:30:01.249Z,0.00
2018-06-07T02:31:01.203Z,0.00
2018-06-07T02:32:01.153Z,0.00
2018-06-07T02:33:01.110Z,0.00
2018-06-07T02:34:01.096Z,0.00
2018-06-07T02:35:01.032Z,0.00
2018-06-07T02:36:00.976Z,0.00
2018-06-07T02:37:00.930Z,0.00
2018-06-07T02:38:00.923Z,0.00
2018-06-07T02:39:00.877Z,0.00
2018-06-07T02:40:00.802Z,0.00
2018-06-07T02:41:00.762Z,0.00
2018-06-07T02:42:00.710Z,0.00
2018-06-07T02:43:00.667Z,0.00
2018-06-07T02:44:00.656Z,0.00
2018-06-07T02:45:00.579Z,0.00
2018-06-07T02:46:00.533Z,0.00
2018-06-07T02:47:00.492Z,0.00
2018-06-07T02:48:00.448Z,0.00
2018-06-07T02:49:00.438Z,0.00
2018-06-07T02:50:00.362Z,0.00
2018-06-07T02:51:00.313Z,0.00
2018-06-07T02:52:00.270Z,0.00
2018-06-07T02:53:00.227Z,0.00
2018-06-07T02:54:00.217Z,0.00
2018-06-07T02:55:00.137Z,0.00
2018-06-07T02:56:00.097Z,0.00
2018-06-07T02:57:00.051Z,0.00
2018-06-07T02:58:00.017Z,0.00
2018-06-07T02:58:59.998Z,0.00
2018-06-07T02:59:59.919Z,0.00
2018-06-07T03:00:59.872Z,0.00
2018-06-07T03:01:59.831Z,0.00
2018-06-07T03:02:59.902Z,0.00
2018-06-07T03:03:59.778Z,0.00
2018-06-07T03:04:59.698Z,0.00
2018-06-07T03:05:59.654Z,0.00
2018-06-07T03:06:59.610Z,0.00
2018-06-07T03:07:59.568Z,0.00
2018-06-07T03:08:59.557Z,0.00
2018-06-07T03:09:59.477Z,0.00
2018-06-07T03:10:59.434Z,0.00
2018-06-07T03:11:59.391Z,0.00
2018-06-07T03:12:59.349Z,0.00
2018-06-07T03:13:59.340Z,0.00
2018-06-07T03:14:59.260Z,0.00
2018-06-07T03:15:59.215Z,0.00
2018-06-07T03:16:59.173Z,0.00
2018-06-07T03:17:59.128Z,0.00
2018-06-07T03:18:59.116Z,0.00
2018-06-07T03:19:59.040Z,0.00
2018-06-07T03:20:58.994Z,0.00
2018-06-07T03:21:58.952Z,0.00
2018-06-07T03:22:58.909Z,0.00
2018-06-07T03:23:58.899Z,0.00
2018-06-07T03:24:58.821Z,0.00
2018-06-07T03:25:58.776Z,0.00
2018-06-07T03:26:58.732Z,5.63
2018-06-07T03:27:58.687Z,5.63
2018-06-07T03:28:58.679Z,5.63
2018-06-07T03:29:58.604Z,5.63
2018-06-07T03:30:58.557Z,5.63
2018-06-07T03:31:58.513Z,5.63
2018-06-07T03:32:58.467Z,5.63
2018-06-07T03:33:58.458Z,5.63
2018-06-07T03:34:58.382Z,5.63
2018-06-07T03:35:58.342Z,5.63
2018-06-07T03:36:58.290Z,5.63
2018-06-07T03:37:58.247Z,5.63
2018-06-07T03:38:58.239Z,5.63
2018-06-07T03:39:58.159Z,11.25
2018-06-07T03:40:58.115Z,11.25
2018-06-07T03:41:58.072Z,11.25
2018-06-07T03:42:58.027Z,11.25
2018-06-07T03:43:58.020Z,11.25
2018-06-07T03:44:57.941Z,11.25
2018-06-07T03:45:57.896Z,11.25
2018-06-07T03:46:57.853Z,16.88
2018-06-07T03:47:57.809Z,16.88
2018-06-07T03:48:57.795Z,16.88
2018-06-07T03:49:57.718Z,16.88
2018-06-07T03:50:57.676Z,16.88
2018-06-07T03:51:57.633Z,16.88
2018-06-07T03:52:57.590Z,16.88
2018-06-07T03:53:57.575Z,22.50
2018-06-07T03:54:57.501Z,22.50
2018-06-07T03:55:57.462Z,22.50
2018-06-07T03:56:57.409Z,22.50
2018-06-07T03:57:57.366Z,22.50
2018-06-07T03:58:57.356Z,22.50
2018-06-07T03:59:57.278Z,22.50
2018-06-07T04:00:57.236Z,22.50
2018-06-07T04:01:57.196Z,22.50
2018-06-07T04:02:57.147Z,28.13
2018-06-07T04:03:57.143Z,28.13
2018-06-07T04:04:57.062Z,28.13
2018-06-07T04:05:57.013Z,28.13
2018-06-07T04:06:56.969Z,28.13
2018-06-07T04:07:56.927Z,28.13
2018-06-07T04:08:56.915Z,33.75
2018-06-07T04:09:56.839Z,33.75
2018-06-07T04:10:56.795Z,33.75
2018-06-07T04:11:56.749Z,33.75
2018-06-07T04:12:56.706Z,39.38
2018-06-07T04:13:56.701Z,39.38
2018-06-07T04:14:56.617Z,39.38
2018-06-07T04:15:56.580Z,45.00
2018-06-07T04:16:56.531Z,45.00
2018-06-07T04:17:56.487Z,50.63
2018-06-07T04:18:56.476Z,56.25
2018-06-07T04:19:56.400Z,61.88
2018-06-07T04:20:56.355Z,67.50
2018-06-07T04:21:56.313Z,78.75
2018-06-07T04:22:56.269Z,84.38
2018-06-07T04:23:56.257Z,90.00
2018-06-07T04:24:56.180Z,95.63
2018-06-07T04:25:56.137Z,95.63
2018-06-07T04:26:56.094Z,101.25
2018-06-07T04:27:56.051Z,101.25
2018-06-07T04:28:56.043Z,101.25
2018-06-07T04:29:55.966Z,106.88
2018-06-07T04:30:55.926Z,106.88
2018-06-07T04:31:55.881Z,106.88
2018-06-07T04:32:55.839Z,101.25
2018-06-07T04:33:55.831Z,101.25
2018-06-07T04:34:55.755Z,101.25
2018-06-07T04:35:55.717Z,90.00
2018-06-07T04:36:55.673Z,78.75
2018-06-07T04:37:55.653Z,73.13
2018-06-07T04:38:55.623Z,73.13
2018-06-07T04:39:55.549Z,73.13
2018-06-07T04:40:55.508Z,73.13
2018-06-07T04:41:55.467Z,78.75
2018-06-07T04:42:55.429Z,84.38
2018-06-07T04:43:55.450Z,90.00
2018-06-07T04:44:55.340Z,95.63
2018-06-07T04:45:55.306Z,101.25
2018-06-07T04:46:55.260Z,106.88
2018-06-07T04:47:55.220Z,112.50
2018-06-07T04:48:55.212Z,112.50
2018-06-07T04:49:55.136Z,112.50
2018-06-07T04:50:55.095Z,118.13
2018-06-07T04:51:55.053Z,112.50
2018-06-07T04:52:55.012Z,101.25
2018-06-07T04:53:55.007Z,90.00
2018-06-07T04:54:54.930Z,84.38
2018-06-07T04:55:54.893Z,78.75
2018-06-07T04:56:54.850Z,78.75
2018-06-07T04:57:54.807Z,84.38
2018-06-07T04:58:54.801Z,84.38
2018-06-07T04:59:54.728Z,84.38
2018-06-07T05:00:54.685Z,90.00
2018-06-07T05:01:54.643Z,90.00
2018-06-07T05:02:54.603Z,95.63
2018-06-07T05:03:54.601Z,101.25
2018-06-07T05:04:54.518Z,101.25
2018-06-07T05:05:54.480Z,106.88
2018-06-07T05:06:54.494Z,106.88
2018-06-07T05:07:54.397Z,112.50
2018-06-07T05:08:54.389Z,118.13
2018-06-07T05:09:54.310Z,118.13
2018-06-07T05:10:54.271Z,118.13
2018-06-07T05:11:54.232Z,118.13
2018-06-07T05:12:54.190Z,118.13
2018-06-07T05:13:54.182Z,118.13
2018-06-07T05:14:54.105Z,118.13
2018-06-07T05:15:54.067Z,123.75
2018-06-07T05:16:54.024Z,123.75
2018-06-07T05:17:53.985Z,129.38
2018-06-07T05:18:53.974Z,129.38
2018-06-07T05:19:53.901Z,135.00
2018-06-07T05:20:53.906Z,135.00
2018-06-07T05:21:53.822Z,135.00
2018-06-07T05:22:53.784Z,135.00
2018-06-07T05:23:53.743Z,135.00
2018-06-07T05:24:53.743Z,135.00
2018-06-07T05:25:53.654Z,135.00
2018-06-07T05:26:53.613Z,157.50
2018-06-07T05:27:53.577Z,185.63
2018-06-07T05:28:53.531Z,191.25
2018-06-07T05:29:53.489Z,196.88
2018-06-07T05:30:53.449Z,196.88
2018-06-07T05:31:53.410Z,191.25
2018-06-07T05:32:53.369Z,185.63
2018-06-07T05:33:53.332Z,180.00
2018-06-07T05:34:53.291Z,185.63
2018-06-07T05:35:53.264Z,191.25
2018-06-07T05:36:53.212Z,191.25
2018-06-07T05:37:53.169Z,196.88
2018-06-07T05:38:53.187Z,191.25
2018-06-07T05:40:53.053Z,180.00
2018-06-07T05:41:53.013Z,168.75
2018-06-07T05:42:52.983Z,163.13
2018-06-07T05:43:52.934Z,163.13
2018-06-07T05:44:52.899Z,168.75
2018-06-07T05:45:52.856Z,174.38
2018-06-07T05:46:52.820Z,196.88
2018-06-07T05:47:52.781Z,196.88
2018-06-07T05:48:52.737Z,196.88
2018-06-07T05:49:52.700Z,191.25
2018-06-07T05:50:52.665Z,163.13
2018-06-07T05:51:52.663Z,151.88
2018-06-07T05:52:52.585Z,140.63
2018-06-07T05:53:52.550Z,135.00
2018-06-07T05:54:52.509Z,135.00
2018-06-07T05:55:52.490Z,129.38
2018-06-07T05:56:52.431Z,123.75
2018-06-07T05:57:52.390Z,123.75
2018-06-07T05:58:52.349Z,112.50
2018-06-07T05:59:52.391Z,106.88
2018-06-07T06:00:52.311Z,106.88
2018-06-07T06:01:52.232Z,106.88
2018-06-07T06:02:52.200Z,106.88
2018-06-07T06:03:52.212Z,106.88
2018-06-07T06:04:52.149Z,106.88
2018-06-07T06:05:52.072Z,101.25
2018-06-07T06:06:52.036Z,101.25
2018-06-07T06:07:51.993Z,101.25
2018-06-07T06:08:51.951Z,95.63
2018-06-07T06:09:51.914Z,95.63
2018-06-07T06:10:51.870Z,101.25
2018-06-07T06:11:51.841Z,101.25
2018-06-07T06:12:51.792Z,101.25
2018-06-07T06:13:51.753Z,106.88
2018-06-07T06:14:51.708Z,106.88
2018-06-07T06:15:51.675Z,106.88
2018-06-07T06:16:51.634Z,112.50
2018-06-07T06:17:51.943Z,118.13
2018-06-07T06:18:51.552Z,129.38
2018-06-07T06:19:51.945Z,135.00
2018-06-07T06:20:51.464Z,146.25
2018-06-07T06:21:51.420Z,151.88
2018-06-07T06:22:51.387Z,157.50
2018-06-07T06:23:51.342Z,168.75
2018-06-07T06:24:51.300Z,168.75
2018-06-07T06:25:51.263Z,174.38
2018-06-07T06:26:51.218Z,180.00
2018-06-07T06:27:51.204Z,202.50
2018-06-07T06:28:51.141Z,202.50
2018-06-07T06:29:51.094Z,202.50
2018-06-07T06:30:51.056Z,219.38
2018-06-07T06:31:51.016Z,225.00
2018-06-07T06:32:50.971Z,219.38
2018-06-07T06:33:50.928Z,241.88
2018-06-07T06:34:50.886Z,236.25
2018-06-07T06:35:50.850Z,236.25
2018-06-07T06:36:50.849Z,241.88
2018-06-07T06:37:50.771Z,236.25
2018-06-07T06:38:50.734Z,219.38
2018-06-07T06:39:50.685Z,196.88
2018-06-07T06:40:50.648Z,185.63
2018-06-07T06:41:50.628Z,180.00
2018-06-07T06:42:50.580Z,174.38
2018-06-07T06:43:50.620Z,174.38
2018-06-07T06:44:50.485Z,174.38
2018-06-07T06:45:50.454Z,174.38
2018-06-07T06:46:50.405Z,174.38
2018-06-07T06:47:50.366Z,180.00
2018-06-07T06:48:50.361Z,180.00
2018-06-07T06:49:50.287Z,180.00
2018-06-07T06:50:50.245Z,185.63
2018-06-07T06:51:50.208Z,185.63
2018-06-07T06:52:50.167Z,185.63
2018-06-07T06:53:50.162Z,185.63
2018-06-07T06:54:50.094Z,191.25
2018-06-07T06:55:50.053Z,191.25
2018-06-07T06:56:50.005Z,191.25
2018-06-07T06:57:49.971Z,185.63
2018-06-07T06:58:49.928Z,185.63
2018-06-07T06:59:49.893Z,191.25
2018-06-07T07:00:49.851Z,202.50
2018-06-07T07:01:49.810Z,208.13
2018-06-07T07:02:49.804Z,208.13
2018-06-07T07:03:49.821Z,202.50
2018-06-07T07:04:49.693Z,191.25
2018-06-07T07:05:49.651Z,185.63
2018-06-07T07:06:49.608Z,191.25
2018-06-07T07:07:49.573Z,191.25
2018-06-07T07:08:49.555Z,202.50
2018-06-07T07:09:49.498Z,208.13
2018-06-07T07:10:49.456Z,219.38
2018-06-07T07:11:49.409Z,230.63
2018-06-07T07:12:49.390Z,241.88
2018-06-07T07:13:49.329Z,225.00
2018-06-07T07:14:49.297Z,219.38
2018-06-07T07:15:49.256Z,202.50
2018-06-07T07:16:49.209Z,202.50
2018-06-07T07:17:49.181Z,202.50
2018-06-07T07:18:49.137Z,196.88
2018-06-07T07:19:49.096Z,202.50
2018-06-07T07:20:49.054Z,202.50
2018-06-07T07:21:49.031Z,202.50
2018-06-07T07:22:48.978Z,202.50
2018-06-07T07:23:48.937Z,202.50
2018-06-07T07:24:48.891Z,202.50
2018-06-07T07:25:48.850Z,202.50
2018-06-07T07:26:48.812Z,202.50
2018-06-07T07:27:48.772Z,202.50
2018-06-07T07:28:48.740Z,202.50
2018-06-07T07:29:48.692Z,202.50
2018-06-07T07:30:48.656Z,208.13
2018-06-07T07:31:48.612Z,208.13
2018-06-07T07:32:48.610Z,208.13
2018-06-07T07:33:48.534Z,208.13
2018-06-07T07:34:48.517Z,208.13
2018-06-07T07:35:48.456Z,208.13
2018-06-07T07:36:48.414Z,208.13
2018-06-07T07:37:48.383Z,208.13
2018-06-07T07:38:48.338Z,213.75
2018-06-07T07:39:48.295Z,213.75
2018-06-07T07:40:48.253Z,208.13
2018-06-07T07:41:48.218Z,208.13
2018-06-07T07:42:48.177Z,208.13
2018-06-07T07:43:48.136Z,213.75
2018-06-07T07:44:48.097Z,213.75
2018-06-07T07:45:49.024Z,213.75
2018-06-07T07:46:48.020Z,219.38
2018-06-07T07:47:47.986Z,219.38
2018-06-07T07:48:47.937Z,219.38
2018-06-07T07:49:47.901Z,219.38
2018-06-07T07:50:47.877Z,225.00
2018-06-07T07:51:47.824Z,225.00
2018-06-07T07:52:47.787Z,225.00
2018-06-07T07:53:47.739Z,230.63
2018-06-07T07:54:47.700Z,230.63
2018-06-07T07:55:47.664Z,230.63
2018-06-07T07:56:47.625Z,236.25
2018-06-07T07:57:47.584Z,236.25
2018-06-07T07:58:47.554Z,236.25
2018-06-07T07:59:47.553Z,236.25
2018-06-07T08:00:47.466Z,236.25
2018-06-07T08:01:47.432Z,230.63
2018-06-07T08:02:47.387Z,230.63
2018-06-07T08:03:47.354Z,230.63
2018-06-07T08:04:47.307Z,230.63
2018-06-07T08:05:47.279Z,230.63
2018-06-07T08:06:47.232Z,236.25
2018-06-07T08:07:47.207Z,236.25
2018-06-07T08:08:47.151Z,236.25
2018-06-07T08:09:47.112Z,241.88
2018-06-07T08:10:47.073Z,236.25
2018-06-07T08:11:48.028Z,230.63
2018-06-07T08:12:46.994Z,230.63
2018-06-07T08:13:46.963Z,225.00
2018-06-07T08:14:46.918Z,225.00
2018-06-07T08:15:46.879Z,225.00
2018-06-07T08:16:46.839Z,225.00
2018-06-07T08:17:46.801Z,225.00
2018-06-07T08:18:46.753Z,225.00
2018-06-07T08:19:46.746Z,225.00
2018-06-07T08:20:46.689Z,225.00
2018-06-07T08:21:46.676Z,225.00
2018-06-07T08:22:46.619Z,225.00
2018-06-07T08:23:46.570Z,230.63
2018-06-07T08:24:46.532Z,230.63
2018-06-07T08:25:46.495Z,230.63
2018-06-07T08:26:46.451Z,225.00
2018-06-07T08:27:46.414Z,225.00
2018-06-07T08:28:46.392Z,219.38
2018-06-07T08:29:46.341Z,219.38
2018-06-07T08:30:46.301Z,208.13
2018-06-07T08:31:46.266Z,202.50
2018-06-07T08:32:46.233Z,191.25
2018-06-07T08:33:46.192Z,185.63
2018-06-07T08:34:46.147Z,185.63
2018-06-07T08:35:46.129Z,180.00
2018-06-07T08:36:46.076Z,185.63
2018-06-07T08:37:46.038Z,185.63
2018-06-07T08:38:45.993Z,191.25
2018-06-07T08:39:45.958Z,191.25
2018-06-07T08:40:45.917Z,191.25
2018-06-07T08:42:06.880Z,191.25
2018-06-07T08:42:45.841Z,191.25
2018-06-07T08:43:45.801Z,191.25
2018-06-07T08:44:45.761Z,191.25
2018-06-07T08:45:45.722Z,191.25
2018-06-07T08:46:48.546Z,191.25
2018-06-07T08:47:45.655Z,196.88
2018-06-07T08:48:45.607Z,196.88
2018-06-07T08:49:46.542Z,202.50
2018-06-07T08:50:45.539Z,208.13
2018-06-07T08:51:45.499Z,208.13
2018-06-07T08:52:45.467Z,208.13
2018-06-07T08:53:45.424Z,208.13
2018-06-07T08:54:45.378Z,208.13
2018-06-07T08:55:45.349Z,202.50
2018-06-07T08:56:45.301Z,196.88
2018-06-07T08:57:45.264Z,191.25
2018-06-07T08:58:45.225Z,185.63
2018-06-07T08:59:45.193Z,185.63
2018-06-07T09:00:45.219Z,185.63
2018-06-07T09:01:45.139Z,185.63
2018-06-07T09:02:45.473Z,185.63
2018-06-07T09:03:51.550Z,185.63
2018-06-07T09:04:44.993Z,180.00
2018-06-07T09:05:44.958Z,180.00
2018-06-07T09:06:44.918Z,174.38
2018-06-07T09:07:44.887Z,174.38
2018-06-07T09:08:44.841Z,168.75
2018-06-07T09:09:44.803Z,168.75
2018-06-07T09:10:44.764Z,168.75
2018-06-07T09:11:44.729Z,174.38
2018-06-07T09:12:44.693Z,174.38
2018-06-07T09:13:44.668Z,174.38
2018-06-07T09:14:44.613Z,174.38
2018-06-07T09:15:45.499Z,174.38
2018-06-07T09:16:44.612Z,174.38
2018-06-07T09:17:44.519Z,174.38
2018-06-07T09:18:51.087Z,174.38
2018-06-07T09:19:44.424Z,180.00
2018-06-07T09:20:44.386Z,185.63
2018-06-07T09:21:44.344Z,185.63
2018-06-07T09:22:44.308Z,191.25
2018-06-07T09:23:44.266Z,191.25
2018-06-07T09:24:44.230Z,185.63
2018-06-07T09:25:44.195Z,185.63
2018-06-07T09:26:45.054Z,180.00
2018-06-07T09:27:47.059Z,174.38
2018-06-07T09:28:44.069Z,174.38
2018-06-07T09:29:44.037Z,174.38
2018-06-07T09:30:44.002Z,174.38
2018-06-07T09:31:43.963Z,180.00
2018-06-07T09:32:43.941Z,180.00
2018-06-07T09:33:43.884Z,180.00
2018-06-07T09:34:43.861Z,180.00
2018-06-07T09:35:43.811Z,180.00
2018-06-07T09:36:43.804Z,180.00
2018-06-07T09:37:43.733Z,180.00
2018-06-07T09:38:43.694Z,185.63
2018-06-07T09:39:43.659Z,185.63
2018-06-07T09:40:43.626Z,185.63
2018-06-07T09:41:43.595Z,191.25
2018-06-07T09:42:43.541Z,196.88
2018-06-07T09:43:43.505Z,202.50
2018-06-07T09:44:43.467Z,213.75
2018-06-07T09:45:43.458Z,219.38
2018-06-07T09:46:43.527Z,230.63
2018-06-07T09:47:50.105Z,236.25
2018-06-07T09:48:43.314Z,247.50
2018-06-07T09:49:43.290Z,253.13
2018-06-07T09:50:43.274Z,258.75
2018-06-07T09:51:43.199Z,270.00
2018-06-07T09:52:43.170Z,275.63
2018-06-07T09:53:43.149Z,286.88
2018-06-07T09:54:43.087Z,292.50
2018-06-07T09:55:43.048Z,303.75
2018-06-07T09:56:43.013Z,315.00
2018-06-07T09:57:42.982Z,320.63
2018-06-07T09:58:42.938Z,326.25
2018-06-07T09:59:42.908Z,331.88
2018-06-07T10:00:42.864Z,331.88
2018-06-07T10:01:42.827Z,331.88
2018-06-07T10:02:42.791Z,331.88
2018-06-07T10:03:42.762Z,331.88
2018-06-07T10:04:42.717Z,326.25
2018-06-07T10:05:42.805Z,326.25
2018-06-07T10:06:42.646Z,320.63
2018-06-07T10:07:42.647Z,309.38
2018-06-07T10:08:42.576Z,303.75
2018-06-07T10:09:42.555Z,292.50
2018-06-07T10:10:42.555Z,292.50
2018-06-07T10:11:42.472Z,286.88
2018-06-07T10:12:42.435Z,286.88
2018-06-07T10:13:42.394Z,286.88
2018-06-07T10:14:42.358Z,281.25
2018-06-07T10:15:42.461Z,281.25
2018-06-07T10:16:42.361Z,275.63
2018-06-07T10:17:42.261Z,270.00
2018-06-07T10:18:42.346Z,264.38
2018-06-07T10:19:42.184Z,264.38
2018-06-07T10:20:42.145Z,264.38
2018-06-07T10:21:42.112Z,264.38
2018-06-07T10:22:42.073Z,264.38
2018-06-07T10:23:42.137Z,270.00
2018-06-07T10:24:42.003Z,270.00
2018-06-07T10:25:41.978Z,270.00
2018-06-07T10:26:41.926Z,270.00
2018-06-07T10:27:41.921Z,275.63
2018-06-07T10:28:41.858Z,275.63
2018-06-07T10:29:41.828Z,281.25
2018-06-07T10:30:41.785Z,281.25
2018-06-07T10:31:41.748Z,281.25
2018-06-07T10:32:41.760Z,281.25
2018-06-07T10:33:41.684Z,286.88
2018-06-07T10:34:41.644Z,286.88
2018-06-07T10:35:41.642Z,292.50
2018-06-07T10:36:41.577Z,343.13
2018-06-07T10:37:41.535Z,331.88
2018-06-07T10:38:41.505Z,343.13
2018-06-07T10:39:41.465Z,348.75
2018-06-07T10:40:41.468Z,348.75
2018-06-07T10:41:41.398Z,286.88
2018-06-07T10:42:41.356Z,253.13
2018-06-07T10:43:41.324Z,281.25
2018-06-07T10:44:41.285Z,236.25
2018-06-07T10:45:41.254Z,236.25
2018-06-07T10:46:41.217Z,225.00
2018-06-07T10:47:41.182Z,241.88
2018-06-07T10:48:41.143Z,270.00
2018-06-07T10:49:41.115Z,258.75
2018-06-07T10:50:41.079Z,247.50
2018-06-07T10:51:41.036Z,202.50
2018-06-07T10:52:41.016Z,230.63
2018-06-07T10:53:40.979Z,247.50
2018-06-07T10:54:40.928Z,230.63
2018-06-07T10:55:40.895Z,230.63
2018-06-07T10:56:40.890Z,225.00
2018-06-07T10:57:40.819Z,180.00
2018-06-07T10:58:40.786Z,185.63
2018-06-07T11:03:21.163Z,185.63
2018-06-07T11:04:21.126Z,202.50
2018-06-07T11:06:13.921Z,185.63
2018-06-07T11:07:13.856Z,191.25
2018-06-07T11:09:06.713Z,191.25
2018-06-07T11:10:06.644Z,196.88
2018-06-07T11:11:59.456Z,202.50
2018-06-07T11:12:59.413Z,208.13
2018-06-07T11:14:52.259Z,225.00
2018-06-07T11:15:52.183Z,275.63
2018-06-07T11:17:45.019Z,225.00
2018-06-07T11:18:44.976Z,230.63
2018-06-07T11:20:38.140Z,281.25
2018-06-07T11:21:37.919Z,253.13
2018-06-07T11:23:30.766Z,264.38
2018-06-07T11:24:30.723Z,258.75
2018-06-07T11:26:23.558Z,258.75
2018-06-07T11:27:23.806Z,253.13
2018-06-07T11:29:16.347Z,236.25
2018-06-07T11:30:16.255Z,219.38
2018-06-07T11:32:09.097Z,236.25
2018-06-07T11:33:09.654Z,258.75
2018-06-07T11:35:01.894Z,230.63
2018-06-07T11:36:01.821Z,270.00
2018-06-07T11:37:54.634Z,247.50
2018-06-07T11:38:54.592Z,247.50
2018-06-07T11:40:47.490Z,275.63
2018-06-07T11:41:47.981Z,258.75
2018-06-07T11:43:40.189Z,264.38
2018-06-07T11:44:40.758Z,270.00
2018-06-07T11:46:33.854Z,264.38
2018-06-07T11:47:34.544Z,264.38
2018-06-07T11:49:27.124Z,264.38
2018-06-07T11:50:27.120Z,281.25
2018-06-07T11:52:19.896Z,241.88
2018-06-07T11:53:19.868Z,253.13
2018-06-07T11:55:12.677Z,219.38
2018-06-07T11:56:12.650Z,230.63
2018-06-07T11:58:05.435Z,219.38
2018-06-07T11:59:05.407Z,219.38
2018-06-07T12:00:58.270Z,241.88
2018-06-07T12:01:58.168Z,264.38
2018-06-07T12:03:51.005Z,225.00
2018-06-07T12:04:50.966Z,247.50
2018-06-07T12:06:43.806Z,236.25
2018-06-07T12:07:43.744Z,286.88
2018-06-07T12:09:36.616Z,264.38
2018-06-07T12:10:36.514Z,270.00
2018-06-07T12:12:29.387Z,253.13
2018-06-07T12:13:29.309Z,253.13
2018-06-07T12:15:23.146Z,275.63
2018-06-07T12:16:22.180Z,270.00
2018-06-07T12:18:14.907Z,247.50
2018-06-07T12:19:14.866Z,230.63
2018-06-07T12:21:07.726Z,253.13
2018-06-07T12:22:07.960Z,225.00
2018-06-07T12:24:00.464Z,247.50
2018-06-07T12:25:00.420Z,253.13
2018-06-07T12:26:53.259Z,258.75
2018-06-07T12:27:53.196Z,264.38
2018-06-07T12:29:46.017Z,264.38
2018-06-07T12:30:45.974Z,258.75
2018-06-07T12:32:38.855Z,247.50
2018-06-07T12:33:38.755Z,241.88
2018-06-07T12:35:31.598Z,241.88
2018-06-07T12:36:31.635Z,247.50
2018-06-07T12:38:24.353Z,241.88
2018-06-07T12:39:24.306Z,241.88
2018-06-07T12:40:24.341Z,230.63
2018-06-07T12:41:24.236Z,213.75
2018-06-07T12:42:24.199Z,236.25
2018-06-07T12:43:24.156Z,230.63
2018-06-07T12:44:24.129Z,253.13
2018-06-07T12:45:24.092Z,241.88
2018-06-07T12:46:24.062Z,230.63
2018-06-07T12:47:24.021Z,236.25
2018-06-07T12:48:23.984Z,202.50
2018-06-07T12:49:23.947Z,196.88
2018-06-07T12:50:23.913Z,247.50
2018-06-07T12:51:23.879Z,241.88
2018-06-07T12:52:23.842Z,241.88
2018-06-07T12:53:24.430Z,230.63
2018-06-07T12:54:23.771Z,264.38
2018-06-07T12:55:23.736Z,230.63
2018-06-07T12:56:23.786Z,264.38
2018-06-07T12:57:23.666Z,236.25
2018-06-07T12:58:23.630Z,264.38
2018-06-07T12:59:23.594Z,241.88
2018-06-07T13:00:23.559Z,253.13
2018-06-07T13:01:23.531Z,292.50
2018-06-07T13:02:23.486Z,286.88
2018-06-07T13:03:23.477Z,281.25
2018-06-07T13:04:23.423Z,281.25
2018-06-07T13:05:23.383Z,275.63
2018-06-07T13:06:23.384Z,275.63
2018-06-07T13:07:23.314Z,275.63
2018-06-07T13:08:23.279Z,264.38
2018-06-07T13:09:23.245Z,213.75
2018-06-07T13:10:23.265Z,208.13
2018-06-07T13:11:23.187Z,225.00
2018-06-07T13:12:23.141Z,230.63
2018-06-07T13:13:23.182Z,236.25
2018-06-07T13:14:23.075Z,236.25
2018-06-07T13:15:23.037Z,247.50
2018-06-07T13:16:23.004Z,213.75
2018-06-07T13:17:22.977Z,258.75